createdAt,value
2023-03-26T00:02:31.392Z,100313.31
2023-03-26T00:07:28.792Z,100306.75
2023-03-26T00:12:29.833Z,100299.72
2023-03-26T00:17:27.446Z,100299.91
2023-03-26T00:22:26.649Z,100289.13
2023-03-26T00:27:25.515Z,100268.28
2023-03-26T00:32:27.981Z,100265.28
2023-03-26T00:37:26.798Z,100309.59
2023-03-26T00:42:24.996Z,100290.03
2023-03-26T00:47:25.849Z,100305.47
2023-03-26T00:52:23.647Z,100289.94
2023-03-26T00:57:35.922Z,100322.78
2023-03-26T01:02:34.514Z,100350.66
2023-03-26T01:07:35.250Z,100341.81
2023-03-26T01:12:34.964Z,100357.13
2023-03-26T01:17:34.770Z,100364.31
2023-03-26T01:22:32.664Z,100371.63
2023-03-26T01:27:39.121Z,100376.94
2023-03-26T01:32:39.526Z,100376.59
2023-03-26T01:37:52.992Z,100388.50
2023-03-26T01:42:54.424Z,100380.13
2023-03-26T01:47:57.870Z,100384.72
2023-03-26T01:52:56.378Z,100379.47
2023-03-26T01:57:54.348Z,100371.66
2023-03-26T02:03:18.405Z,100365.53
2023-03-26T02:08:31.846Z,100373.19
2023-03-26T02:13:29.966Z,100369.44
2023-03-26T02:18:36.872Z,100365.00
2023-03-26T02:23:37.375Z,100363.25
2023-03-26T02:28:37.282Z,100356.94
2023-03-26T02:33:34.784Z,100371.00
2023-03-26T02:38:35.530Z,100362.97
2023-03-26T02:43:34.391Z,100369.91
2023-03-26T02:48:36.027Z,100369.56
2023-03-26T02:53:46.096Z,100370.03
2023-03-26T02:58:59.186Z,100376.22
2023-03-26T03:03:56.847Z,100376.53
2023-03-26T03:09:06.464Z,100387.59
2023-03-26T03:14:04.966Z,100384.88
2023-03-26T03:19:06.491Z,100387.59
2023-03-26T03:24:14.003Z,100385.78
2023-03-26T03:29:15.418Z,100390.47
2023-03-26T03:34:14.570Z,100384.16
2023-03-26T03:39:22.454Z,100383.06
2023-03-26T03:44:23.069Z,100381.16
2023-03-26T03:49:23.972Z,100379.16
2023-03-26T03:54:22.176Z,100376.41
2023-03-26T03:59:35.302Z,100384.59
2023-03-26T04:04:37.984Z,100384.84
2023-03-26T04:09:49.263Z,100384.59
2023-03-26T04:14:54.213Z,100390.53
2023-03-26T04:19:53.093Z,100389.53
2023-03-26T04:24:57.556Z,100383.16
2023-03-26T04:30:02.872Z,100380.53
2023-03-26T04:35:06.585Z,100384.63
2023-03-26T04:40:14.690Z,100381.16
2023-03-26T04:45:31.634Z,100394.09
2023-03-26T04:50:32.748Z,100382.09
2023-03-26T04:55:36.626Z,100387.25
2023-03-26T05:00:41.780Z,100397.03
2023-03-26T05:05:47.344Z,100400.88
2023-03-26T05:10:44.644Z,100409.72
2023-03-26T05:15:49.700Z,100404.88
2023-03-26T05:21:02.229Z,100412.53
2023-03-26T05:26:03.750Z,100426.00
2023-03-26T05:31:07.309Z,100445.34
2023-03-26T05:36:15.985Z,100454.53
2023-03-26T05:41:18.780Z,100454.88
2023-03-26T05:46:27.629Z,100467.41
2023-03-26T05:51:31.081Z,100473.66
2023-03-26T05:56:54.019Z,100470.25
2023-03-26T06:02:23.205Z,100471.94
2023-03-26T06:07:44.094Z,100475.38
2023-03-26T06:12:45.939Z,100468.34
2023-03-26T06:17:47.076Z,100474.00
2023-03-26T06:23:06.246Z,100470.84
2023-03-26T06:28:35.708Z,100473.28
2023-03-26T06:33:54.627Z,100483.50
2023-03-26T06:38:53.019Z,100486.94
2023-03-26T06:43:54.394Z,100487.13
2023-03-26T06:49:15.628Z,100486.44
2023-03-26T06:54:35.720Z,100491.94
2023-03-26T07:00:12.276Z,100497.22
2023-03-26T07:05:31.270Z,100509.72
2023-03-26T07:10:54.976Z,100520.75
2023-03-26T07:16:16.030Z,100523.00
2023-03-26T07:21:29.161Z,100518.84
2023-03-26T07:26:31.387Z,100523.84
2023-03-26T07:32:16.672Z,100519.06
2023-03-26T07:37:55.905Z,100517.38
2023-03-26T07:43:28.791Z,100518.94
2023-03-26T07:48:51.788Z,100525.44
2023-03-26T07:54:06.317Z,100524.91
2023-03-26T07:59:26.823Z,100528.59
2023-03-26T08:05:03.985Z,100527.91
2023-03-26T08:10:51.439Z,100536.00
2023-03-26T08:15:59.380Z,100539.13
2023-03-26T08:21:09.130Z,100540.69
2023-03-26T08:26:14.658Z,100548.19
2023-03-26T08:31:15.850Z,100560.66
2023-03-26T08:36:16.337Z,100555.56
2023-03-26T08:41:24.620Z,100562.59
2023-03-26T08:46:30.070Z,100558.63
2023-03-26T08:51:28.564Z,100562.16
2023-03-26T08:56:52.677Z,100547.66
2023-03-26T09:01:56.716Z,100545.44
2023-03-26T09:06:54.770Z,100556.47
2023-03-26T09:12:10.951Z,100543.75
2023-03-26T09:17:16.204Z,100531.88
2023-03-26T09:22:22.740Z,100530.19
2023-03-26T09:27:47.820Z,100518.09
2023-03-26T09:32:45.803Z,100523.94
2023-03-26T09:37:56.386Z,100524.16
2023-03-26T09:43:27.821Z,100524.97
2023-03-26T09:49:05.688Z,100510.41
2023-03-26T09:54:20.204Z,100517.16
2023-03-26T09:59:24.693Z,100512.00
2023-03-26T10:04:54.748Z,100506.91
2023-03-26T10:09:54.057Z,100494.75
2023-03-26T10:15:01.405Z,100496.06
2023-03-26T10:20:12.057Z,100487.16
2023-03-26T10:25:13.555Z,100485.63
2023-03-26T10:30:26.498Z,100495.47
2023-03-26T10:35:43.801Z,100483.34
2023-03-26T10:41:01.202Z,100482.97
2023-03-26T10:46:15.673Z,100478.91
2023-03-26T10:51:15.896Z,100469.66
2023-03-26T10:56:14.276Z,100446.59
2023-03-26T11:01:12.943Z,100442.72
2023-03-26T11:06:18.237Z,100427.06
2023-03-26T11:11:19.411Z,100427.66
2023-03-26T11:16:27.121Z,100431.06
2023-03-26T11:21:28.918Z,100415.47
2023-03-26T11:26:36.783Z,100417.81
2023-03-26T11:31:57.680Z,100423.31
2023-03-26T11:36:56.571Z,100418.03
2023-03-26T11:42:26.100Z,100398.00
2023-03-26T11:47:30.376Z,100405.34
2023-03-26T11:52:28.249Z,100397.25
2023-03-26T11:57:30.073Z,100388.31
2023-03-26T12:02:35.944Z,100380.47
2023-03-26T12:07:34.725Z,100381.97
2023-03-26T12:12:41.516Z,100366.59
2023-03-26T12:17:46.089Z,100378.34
2023-03-26T12:22:53.316Z,100366.22
2023-03-26T12:28:07.649Z,100360.97
2023-03-26T12:33:06.093Z,100359.00
2023-03-26T12:38:23.289Z,100349.09
2023-03-26T12:44:56.159Z,100358.72
2023-03-26T12:48:44.225Z,100332.13
2023-03-26T12:53:51.069Z,100331.53
2023-03-26T12:58:51.554Z,100332.91
2023-03-26T13:04:09.497Z,100327.78
2023-03-26T13:09:22.971Z,100315.47
2023-03-26T13:14:32.069Z,100322.00
2023-03-26T13:19:40.771Z,100319.78
2023-03-26T13:24:40.440Z,100317.13
2023-03-26T13:29:57.089Z,100314.91
2023-03-26T13:35:08.530Z,100314.91
2023-03-26T13:40:25.611Z,100299.56
2023-03-26T13:45:30.066Z,100305.06
2023-03-26T13:50:29.113Z,100300.97
2023-03-26T13:55:30.729Z,100306.31
2023-03-26T14:00:38.266Z,100306.69
2023-03-26T14:06:09.006Z,100298.63
2023-03-26T14:11:26.349Z,100302.13
2023-03-26T14:16:27.586Z,100295.66
2023-03-26T14:21:25.302Z,100301.28
2023-03-26T14:26:29.550Z,100292.94
2023-03-26T14:31:30.546Z,100283.06
2023-03-26T14:36:41.704Z,100288.53
2023-03-26T14:41:47.963Z,100297.75
2023-03-26T14:47:10.200Z,100295.50
2023-03-26T14:52:18.787Z,100282.97
2023-03-26T14:57:37.142Z,100293.81
2023-03-26T15:02:40.101Z,100287.53
2023-03-26T15:07:53.385Z,100277.00
2023-03-26T15:13:05.910Z,100281.72
2023-03-26T15:18:14.922Z,100294.31
2023-03-26T15:23:40.864Z,100275.91
2023-03-26T15:29:01.612Z,100287.28
2023-03-26T15:34:12.270Z,100281.03
2023-03-26T15:39:32.681Z,100282.38
2023-03-26T15:44:36.153Z,100291.94
2023-03-26T15:49:44.142Z,100293.41
2023-03-26T15:55:16.180Z,100298.78
2023-03-26T16:00:22.754Z,100295.44
2023-03-26T16:11:45.844Z,100310.59
2023-03-26T16:16:54.762Z,100314.81
2023-03-26T16:21:56.322Z,100315.16
2023-03-26T16:27:01.596Z,100319.69
2023-03-26T16:32:11.858Z,100322.75
2023-03-26T16:37:38.367Z,100322.31
2023-03-26T16:42:44.489Z,100325.97
2023-03-26T16:47:45.147Z,100327.66
2023-03-26T16:52:44.446Z,100328.91
2023-03-26T16:57:45.945Z,100344.72
2023-03-26T17:03:30.356Z,100347.97
2023-03-26T17:08:47.426Z,100357.28
2023-03-26T17:14:07.488Z,100364.97
2023-03-26T17:19:05.773Z,100370.63
2023-03-26T17:24:24.429Z,100376.44
2023-03-26T17:29:38.776Z,100371.19
2023-03-26T17:34:57.515Z,100369.75
2023-03-26T17:40:12.640Z,100373.94
2023-03-26T17:45:38.569Z,100384.22
2023-03-26T17:50:50.318Z,100383.59
2023-03-26T17:56:05.825Z,100383.97
2023-03-26T18:01:31.526Z,100395.72
2023-03-26T18:06:32.951Z,100389.28
2023-03-26T18:11:52.008Z,100391.81
2023-03-26T18:16:53.411Z,100389.19
2023-03-26T18:21:58.293Z,100397.47
2023-03-26T18:27:13.829Z,100400.91
2023-03-26T18:32:19.964Z,100397.06
2023-03-26T18:37:31.833Z,100401.50
2023-03-26T18:42:30.484Z,100405.13
2023-03-26T18:47:31.296Z,100390.97
2023-03-26T18:52:30.622Z,100390.19
2023-03-26T18:57:31.565Z,100384.56
2023-03-26T19:02:35.192Z,100376.56
2023-03-26T19:07:36.758Z,100368.47
2023-03-26T19:12:48.365Z,100375.16
2023-03-26T19:17:53.347Z,100369.09
2023-03-26T19:23:03.985Z,100369.25
2023-03-26T19:28:01.742Z,100368.44
2023-03-26T19:45:59.624Z,100377.28
2023-03-26T19:56:19.793Z,100387.09
2023-03-26T20:01:28.175Z,100386.19
2023-03-26T20:06:43.764Z,100386.84
2023-03-26T20:11:58.081Z,100382.28
2023-03-26T20:16:59.716Z,100379.47
2023-03-26T20:22:04.823Z,100364.91
2023-03-26T20:27:04.040Z,100368.09
2023-03-26T20:32:38.309Z,100368.75
2023-03-26T20:37:40.052Z,100360.38
2023-03-26T20:42:40.270Z,100361.13
2023-03-26T20:47:40.223Z,100354.19
2023-03-26T20:52:42.905Z,100358.28
2023-03-26T20:57:43.017Z,100361.47
2023-03-26T21:02:44.804Z,100345.88
2023-03-26T21:07:46.172Z,100338.84
2023-03-26T21:12:50.665Z,100332.91
2023-03-26T21:17:48.867Z,100327.59
2023-03-26T21:22:52.971Z,100317.78
2023-03-26T21:28:08.970Z,100313.88
2023-03-26T21:33:06.491Z,100310.34
2023-03-26T21:38:06.036Z,100307.97
2023-03-26T21:43:06.827Z,100303.25
2023-03-26T21:48:04.544Z,100299.97
2023-03-26T21:53:03.311Z,100295.47
2023-03-26T21:58:04.137Z,100289.34
2023-03-26T22:03:06.366Z,100277.16
2023-03-26T22:08:04.512Z,100266.63
2023-03-26T22:13:06.418Z,100261.75
2023-03-26T22:18:04.214Z,100251.78
2023-03-26T22:23:03.359Z,100242.81
2023-03-26T22:28:06.378Z,100250.56
2023-03-26T22:33:08.492Z,100244.63
2023-03-26T22:38:09.238Z,100242.38
2023-03-26T22:43:07.663Z,100242.38
2023-03-26T22:48:05.061Z,100237.22
2023-03-26T22:53:03.890Z,100232.66
2023-03-26T22:58:04.625Z,100234.16
2023-03-26T23:03:04.935Z,100232.44
2023-03-26T23:08:03.089Z,100236.88
2023-03-26T23:13:36.042Z,100227.31
2023-03-26T23:18:34.701Z,100225.88
2023-03-26T23:23:33.426Z,100227.03
2023-03-26T23:28:32.159Z,100223.13
2023-03-26T23:33:31.789Z,100222.09
2023-03-26T23:38:44.156Z,100211.59
2023-03-26T23:43:54.145Z,100196.91
2023-03-26T23:48:55.157Z,100192.78
2023-03-26T23:53:55.580Z,100190.69
2023-03-26T23:58:57.109Z,100177.88
